sensor_id;sensor_type;location;lat;lon;timestamp;P1;durP1;ratioP1;P2;durP2;ratioP2
15931;SDS011;8065;49.520;11.284;2023-03-08T00:00:02;7.63;;;4.97;;
15931;SDS011;8065;49.520;11.284;2023-03-08T00:02:31;8.97;;;5.97;;
15931;SDS011;8065;49.520;11.284;2023-03-08T00:04:58;7.33;;;5.60;;
15931;SDS011;8065;49.520;11.284;2023-03-08T00:07:25;8.23;;;5.80;;
15931;SDS011;8065;49.520;11.284;2023-03-08T00:09:52;9.93;;;6.37;;
15931;SDS011;8065;49.520;11.284;2023-03-08T00:12:19;6.63;;;5.13;;
15931;SDS011;8065;49.520;11.284;2023-03-08T00:14:47;10.00;;;5.87;;
15931;SDS011;8065;49.520;11.284;2023-03-08T00:17:13;10.53;;;5.50;;
15931;SDS011;8065;49.520;11.284;2023-03-08T00:19:41;8.07;;;5.37;;
15931;SDS011;8065;49.520;11.284;2023-03-08T00:22:09;8.40;;;4.97;;
15931;SDS011;8065;49.520;11.284;2023-03-08T00:24:36;7.60;;;5.47;;
15931;SDS011;8065;49.520;11.284;2023-03-08T00:27:03;8.97;;;5.80;;
15931;SDS011;8065;49.520;11.284;2023-03-08T00:29:30;7.17;;;5.13;;
15931;SDS011;8065;49.520;11.284;2023-03-08T00:31:56;9.47;;;5.33;;
15931;SDS011;8065;49.520;11.284;2023-03-08T00:34:23;7.40;;;5.30;;
15931;SDS011;8065;49.520;11.284;2023-03-08T00:36:51;7.53;;;5.57;;
15931;SDS011;8065;49.520;11.284;2023-03-08T00:39:18;6.03;;;4.97;;
15931;SDS011;8065;49.520;11.284;2023-03-08T00:41:44;6.40;;;5.00;;
15931;SDS011;8065;49.520;11.284;2023-03-08T00:44:11;6.67;;;4.87;;
15931;SDS011;8065;49.520;11.284;2023-03-08T00:46:38;8.77;;;5.40;;
15931;SDS011;8065;49.520;11.284;2023-03-08T00:49:04;8.80;;;5.60;;
15931;SDS011;8065;49.520;11.284;2023-03-08T00:51:31;7.00;;;5.37;;
15931;SDS011;8065;49.520;11.284;2023-03-08T00:53:59;7.23;;;5.43;;
15931;SDS011;8065;49.520;11.284;2023-03-08T00:56:25;7.93;;;5.67;;
15931;SDS011;8065;49.520;11.284;2023-03-08T00:58:52;6.93;;;5.30;;
15931;SDS011;8065;49.520;11.284;2023-03-08T01:01:18;7.20;;;5.10;;
15931;SDS011;8065;49.520;11.284;2023-03-08T01:03:45;7.77;;;5.57;;
15931;SDS011;8065;49.520;11.284;2023-03-08T01:06:12;7.03;;;5.67;;
15931;SDS011;8065;49.520;11.284;2023-03-08T01:08:39;9.27;;;5.70;;
15931;SDS011;8065;49.520;11.284;2023-03-08T01:11:11;7.27;;;5.47;;
15931;SDS011;8065;49.520;11.284;2023-03-08T01:13:41;8.10;;;5.43;;
15931;SDS011;8065;49.520;11.284;2023-03-08T01:16:13;7.20;;;4.67;;
15931;SDS011;8065;49.520;11.284;2023-03-08T01:18:41;9.03;;;5.57;;
15931;SDS011;8065;49.520;11.284;2023-03-08T01:21:09;6.37;;;4.97;;
15931;SDS011;8065;49.520;11.284;2023-03-08T01:23:36;7.60;;;5.20;;
15931;SDS011;8065;49.520;11.284;2023-03-08T01:26:03;6.43;;;4.93;;
15931;SDS011;8065;49.520;11.284;2023-03-08T01:28:32;8.63;;;6.00;;
15931;SDS011;8065;49.520;11.284;2023-03-08T01:31:00;7.43;;;5.17;;
15931;SDS011;8065;49.520;11.284;2023-03-08T01:33:27;6.93;;;5.40;;
15931;SDS011;8065;49.520;11.284;2023-03-08T01:35:53;7.60;;;5.10;;
15931;SDS011;8065;49.520;11.284;2023-03-08T01:38:20;8.47;;;5.00;;
15931;SDS011;8065;49.520;11.284;2023-03-08T01:40:46;7.43;;;5.30;;
15931;SDS011;8065;49.520;11.284;2023-03-08T01:43:20;8.73;;;5.57;;
15931;SDS011;8065;49.520;11.284;2023-03-08T01:46:05;8.43;;;5.47;;
15931;SDS011;8065;49.520;11.284;2023-03-08T01:48:59;7.07;;;5.43;;
15931;SDS011;8065;49.520;11.284;2023-03-08T01:51:32;7.37;;;5.57;;
15931;SDS011;8065;49.520;11.284;2023-03-08T01:54:04;9.20;;;5.70;;
15931;SDS011;8065;49.520;11.284;2023-03-08T01:56:33;7.17;;;5.40;;
15931;SDS011;8065;49.520;11.284;2023-03-08T01:59:02;7.40;;;5.43;;
15931;SDS011;8065;49.520;11.284;2023-03-08T02:01:31;10.30;;;5.37;;
15931;SDS011;8065;49.520;11.284;2023-03-08T02:03:59;8.17;;;5.70;;
15931;SDS011;8065;49.520;11.284;2023-03-08T02:06:26;6.30;;;4.73;;
15931;SDS011;8065;49.520;11.284;2023-03-08T02:08:53;6.63;;;5.50;;
15931;SDS011;8065;49.520;11.284;2023-03-08T02:11:20;8.27;;;5.50;;
15931;SDS011;8065;49.520;11.284;2023-03-08T02:13:49;8.27;;;5.57;;
15931;SDS011;8065;49.520;11.284;2023-03-08T02:16:16;7.20;;;5.30;;
15931;SDS011;8065;49.520;11.284;2023-03-08T02:18:52;10.33;;;5.80;;
15931;SDS011;8065;49.520;11.284;2023-03-08T02:21:21;7.60;;;5.57;;
15931;SDS011;8065;49.520;11.284;2023-03-08T02:23:49;5.50;;;4.70;;
15931;SDS011;8065;49.520;11.284;2023-03-08T02:26:16;7.70;;;5.53;;
15931;SDS011;8065;49.520;11.284;2023-03-08T02:28:43;10.07;;;5.97;;
15931;SDS011;8065;49.520;11.284;2023-03-08T02:31:10;8.10;;;5.10;;
15931;SDS011;8065;49.520;11.284;2023-03-08T02:33:38;7.60;;;5.13;;
15931;SDS011;8065;49.520;11.284;2023-03-08T02:36:05;7.27;;;5.07;;
15931;SDS011;8065;49.520;11.284;2023-03-08T02:38:33;7.97;;;5.43;;
15931;SDS011;8065;49.520;11.284;2023-03-08T02:41:02;7.90;;;5.13;;
15931;SDS011;8065;49.520;11.284;2023-03-08T02:43:29;8.27;;;5.13;;
15931;SDS011;8065;49.520;11.284;2023-03-08T02:45:55;7.70;;;4.73;;
15931;SDS011;8065;49.520;11.284;2023-03-08T02:48:22;6.07;;;4.80;;
15931;SDS011;8065;49.520;11.284;2023-03-08T02:50:48;6.43;;;4.70;;
15931;SDS011;8065;49.520;11.284;2023-03-08T02:53:15;6.57;;;4.73;;
15931;SDS011;8065;49.520;11.284;2023-03-08T02:55:42;9.17;;;5.23;;
15931;SDS011;8065;49.520;11.284;2023-03-08T02:58:09;6.00;;;4.83;;
15931;SDS011;8065;49.520;11.284;2023-03-08T03:00:36;8.73;;;4.90;;
15931;SDS011;8065;49.520;11.284;2023-03-08T03:03:03;8.07;;;4.67;;
15931;SDS011;8065;49.520;11.284;2023-03-08T03:05:30;7.43;;;4.80;;
15931;SDS011;8065;49.520;11.284;2023-03-08T03:07:56;8.07;;;4.80;;
15931;SDS011;8065;49.520;11.284;2023-03-08T03:10:23;7.97;;;5.13;;
15931;SDS011;8065;49.520;11.284;2023-03-08T03:12:50;7.77;;;5.20;;
15931;SDS011;8065;49.520;11.284;2023-03-08T03:15:18;5.93;;;4.87;;
15931;SDS011;8065;49.520;11.284;2023-03-08T03:17:45;5.90;;;4.50;;
15931;SDS011;8065;49.520;11.284;2023-03-08T03:20:12;7.77;;;5.00;;
15931;SDS011;8065;49.520;11.284;2023-03-08T03:22:38;8.70;;;5.17;;
15931;SDS011;8065;49.520;11.284;2023-03-08T03:25:05;7.40;;;5.37;;
15931;SDS011;8065;49.520;11.284;2023-03-08T03:27:32;7.20;;;4.60;;
15931;SDS011;8065;49.520;11.284;2023-03-08T03:29:59;7.57;;;4.73;;
15931;SDS011;8065;49.520;11.284;2023-03-08T03:32:26;6.27;;;4.80;;
15931;SDS011;8065;49.520;11.284;2023-03-08T03:34:53;6.53;;;4.80;;
15931;SDS011;8065;49.520;11.284;2023-03-08T03:37:19;8.97;;;5.27;;
15931;SDS011;8065;49.520;11.284;2023-03-08T03:39:46;7.07;;;5.20;;
15931;SDS011;8065;49.520;11.284;2023-03-08T03:42:12;8.30;;;5.10;;
15931;SDS011;8065;49.520;11.284;2023-03-08T03:44:39;8.23;;;5.03;;
15931;SDS011;8065;49.520;11.284;2023-03-08T03:47:06;5.93;;;4.83;;
15931;SDS011;8065;49.520;11.284;2023-03-08T03:49:34;6.47;;;4.83;;
15931;SDS011;8065;49.520;11.284;2023-03-08T03:52:00;7.50;;;4.67;;
15931;SDS011;8065;49.520;11.284;2023-03-08T03:54:28;8.57;;;5.00;;
15931;SDS011;8065;49.520;11.284;2023-03-08T03:56:54;8.53;;;5.30;;
15931;SDS011;8065;49.520;11.284;2023-03-08T03:59:22;7.80;;;5.57;;
15931;SDS011;8065;49.520;11.284;2023-03-08T04:01:49;8.37;;;5.40;;
15931;SDS011;8065;49.520;11.284;2023-03-08T04:04:15;8.10;;;5.33;;
15931;SDS011;8065;49.520;11.284;2023-03-08T04:06:43;8.27;;;5.13;;
15931;SDS011;8065;49.520;11.284;2023-03-08T04:09:12;8.33;;;5.43;;
15931;SDS011;8065;49.520;11.284;2023-03-08T04:11:40;10.00;;;5.70;;
15931;SDS011;8065;49.520;11.284;2023-03-08T04:14:07;7.63;;;5.30;;
15931;SDS011;8065;49.520;11.284;2023-03-08T04:16:34;8.80;;;5.37;;
15931;SDS011;8065;49.520;11.284;2023-03-08T04:19:03;7.90;;;5.83;;
15931;SDS011;8065;49.520;11.284;2023-03-08T04:21:32;8.37;;;5.50;;
15931;SDS011;8065;49.520;11.284;2023-03-08T04:24:00;8.20;;;5.90;;
15931;SDS011;8065;49.520;11.284;2023-03-08T04:26:27;9.13;;;6.40;;
15931;SDS011;8065;49.520;11.284;2023-03-08T04:28:53;9.17;;;5.93;;
15931;SDS011;8065;49.520;11.284;2023-03-08T04:31:20;8.20;;;5.70;;
15931;SDS011;8065;49.520;11.284;2023-03-08T04:33:48;15.70;;;6.80;;
15931;SDS011;8065;49.520;11.284;2023-03-08T04:36:16;10.40;;;5.73;;
15931;SDS011;8065;49.520;11.284;2023-03-08T04:38:44;8.53;;;5.80;;
15931;SDS011;8065;49.520;11.284;2023-03-08T04:41:13;9.73;;;5.87;;
15931;SDS011;8065;49.520;11.284;2023-03-08T04:43:42;8.57;;;5.50;;
15931;SDS011;8065;49.520;11.284;2023-03-08T04:46:10;10.53;;;6.50;;
15931;SDS011;8065;49.520;11.284;2023-03-08T04:48:37;12.53;;;6.27;;
15931;SDS011;8065;49.520;11.284;2023-03-08T04:51:04;8.70;;;5.73;;
15931;SDS011;8065;49.520;11.284;2023-03-08T04:53:32;10.30;;;6.50;;
15931;SDS011;8065;49.520;11.284;2023-03-08T04:55:59;10.47;;;6.60;;
15931;SDS011;8065;49.520;11.284;2023-03-08T04:58:27;8.00;;;5.70;;
15931;SDS011;8065;49.520;11.284;2023-03-08T05:00:56;11.60;;;6.53;;
15931;SDS011;8065;49.520;11.284;2023-03-08T05:03:23;10.10;;;6.23;;
15931;SDS011;8065;49.520;11.284;2023-03-08T05:05:51;9.13;;;6.20;;
15931;SDS011;8065;49.520;11.284;2023-03-08T05:08:20;10.30;;;6.47;;
15931;SDS011;8065;49.520;11.284;2023-03-08T05:10:47;8.83;;;6.63;;
15931;SDS011;8065;49.520;11.284;2023-03-08T05:13:14;9.47;;;6.50;;
15931;SDS011;8065;49.520;11.284;2023-03-08T05:15:42;11.43;;;6.40;;
15931;SDS011;8065;49.520;11.284;2023-03-08T05:18:09;12.83;;;6.87;;
15931;SDS011;8065;49.520;11.284;2023-03-08T05:20:35;11.67;;;6.53;;
15931;SDS011;8065;49.520;11.284;2023-03-08T05:23:02;10.77;;;6.53;;
15931;SDS011;8065;49.520;11.284;2023-03-08T05:25:29;10.10;;;6.80;;
15931;SDS011;8065;49.520;11.284;2023-03-08T05:27:56;10.73;;;6.23;;
15931;SDS011;8065;49.520;11.284;2023-03-08T05:30:22;10.00;;;6.33;;
15931;SDS011;8065;49.520;11.284;2023-03-08T05:32:50;10.07;;;6.60;;
15931;SDS011;8065;49.520;11.284;2023-03-08T05:35:17;10.43;;;6.97;;
15931;SDS011;8065;49.520;11.284;2023-03-08T05:37:43;11.17;;;7.27;;
15931;SDS011;8065;49.520;11.284;2023-03-08T05:40:10;12.77;;;6.77;;
15931;SDS011;8065;49.520;11.284;2023-03-08T05:42:37;8.90;;;6.27;;
15931;SDS011;8065;49.520;11.284;2023-03-08T05:45:04;11.63;;;7.10;;
15931;SDS011;8065;49.520;11.284;2023-03-08T05:47:31;13.00;;;7.13;;
15931;SDS011;8065;49.520;11.284;2023-03-08T05:49:59;13.07;;;7.90;;
15931;SDS011;8065;49.520;11.284;2023-03-08T05:52:26;13.73;;;7.80;;
15931;SDS011;8065;49.520;11.284;2023-03-08T05:54:54;14.10;;;6.90;;
15931;SDS011;8065;49.520;11.284;2023-03-08T05:57:20;10.50;;;6.90;;
15931;SDS011;8065;49.520;11.284;2023-03-08T05:59:46;12.37;;;6.97;;
15931;SDS011;8065;49.520;11.284;2023-03-08T06:02:13;13.50;;;7.70;;
15931;SDS011;8065;49.520;11.284;2023-03-08T06:04:39;10.37;;;6.67;;
15931;SDS011;8065;49.520;11.284;2023-03-08T06:07:07;10.77;;;6.63;;
15931;SDS011;8065;49.520;11.284;2023-03-08T06:09:34;10.80;;;7.13;;
15931;SDS011;8065;49.520;11.284;2023-03-08T06:12:00;14.27;;;7.07;;
15931;SDS011;8065;49.520;11.284;2023-03-08T06:14:27;10.73;;;7.17;;
15931;SDS011;8065;49.520;11.284;2023-03-08T06:16:53;13.93;;;9.10;;
15931;SDS011;8065;49.520;11.284;2023-03-08T06:19:20;12.77;;;8.10;;
15931;SDS011;8065;49.520;11.284;2023-03-08T06:21:46;19.47;;;12.70;;
15931;SDS011;8065;49.520;11.284;2023-03-08T06:24:14;23.87;;;14.10;;
15931;SDS011;8065;49.520;11.284;2023-03-08T06:26:40;13.07;;;9.63;;
15931;SDS011;8065;49.520;11.284;2023-03-08T06:29:07;11.63;;;9.07;;
15931;SDS011;8065;49.520;11.284;2023-03-08T06:31:33;12.37;;;10.00;;
15931;SDS011;8065;49.520;11.284;2023-03-08T06:34:00;11.17;;;8.20;;
15931;SDS011;8065;49.520;11.284;2023-03-08T06:36:26;10.53;;;7.87;;
15931;SDS011;8065;49.520;11.284;2023-03-08T06:38:53;9.90;;;7.50;;
15931;SDS011;8065;49.520;11.284;2023-03-08T06:41:20;10.60;;;6.50;;
15931;SDS011;8065;49.520;11.284;2023-03-08T06:43:47;10.60;;;7.07;;
15931;SDS011;8065;49.520;11.284;2023-03-08T06:46:14;12.00;;;7.23;;
15931;SDS011;8065;49.520;11.284;2023-03-08T06:48:42;10.30;;;6.90;;
15931;SDS011;8065;49.520;11.284;2023-03-08T06:51:09;11.97;;;8.60;;
15931;SDS011;8065;49.520;11.284;2023-03-08T06:53:36;12.57;;;9.33;;
15931;SDS011;8065;49.520;11.284;2023-03-08T06:56:03;10.97;;;7.83;;
15931;SDS011;8065;49.520;11.284;2023-03-08T06:58:32;9.03;;;7.00;;
15931;SDS011;8065;49.520;11.284;2023-03-08T07:00:59;9.83;;;6.67;;
15931;SDS011;8065;49.520;11.284;2023-03-08T07:03:28;11.10;;;7.37;;
15931;SDS011;8065;49.520;11.284;2023-03-08T07:05:57;9.43;;;6.63;;
15931;SDS011;8065;49.520;11.284;2023-03-08T07:08:24;10.80;;;6.17;;
15931;SDS011;8065;49.520;11.284;2023-03-08T07:10:50;10.67;;;5.87;;
15931;SDS011;8065;49.520;11.284;2023-03-08T07:13:17;8.73;;;5.80;;
15931;SDS011;8065;49.520;11.284;2023-03-08T07:15:45;8.97;;;6.30;;
15931;SDS011;8065;49.520;11.284;2023-03-08T07:18:11;7.43;;;5.60;;
15931;SDS011;8065;49.520;11.284;2023-03-08T07:20:38;9.03;;;5.67;;
15931;SDS011;8065;49.520;11.284;2023-03-08T07:23:04;9.10;;;5.63;;
15931;SDS011;8065;49.520;11.284;2023-03-08T07:25:31;8.27;;;5.93;;
15931;SDS011;8065;49.520;11.284;2023-03-08T07:27:57;7.77;;;4.90;;
15931;SDS011;8065;49.520;11.284;2023-03-08T07:30:24;9.23;;;6.30;;
15931;SDS011;8065;49.520;11.284;2023-03-08T07:32:52;9.43;;;5.90;;
15931;SDS011;8065;49.520;11.284;2023-03-08T07:35:19;8.93;;;5.93;;
15931;SDS011;8065;49.520;11.284;2023-03-08T07:37:46;8.03;;;5.80;;
15931;SDS011;8065;49.520;11.284;2023-03-08T07:40:13;10.40;;;5.83;;
15931;SDS011;8065;49.520;11.284;2023-03-08T07:42:41;9.03;;;5.87;;
15931;SDS011;8065;49.520;11.284;2023-03-08T07:45:09;9.23;;;5.93;;
15931;SDS011;8065;49.520;11.284;2023-03-08T07:47:36;10.03;;;6.17;;
15931;SDS011;8065;49.520;11.284;2023-03-08T07:50:04;8.27;;;5.70;;
15931;SDS011;8065;49.520;11.284;2023-03-08T07:52:32;9.37;;;5.93;;
15931;SDS011;8065;49.520;11.284;2023-03-08T07:54:58;10.03;;;6.00;;
15931;SDS011;8065;49.520;11.284;2023-03-08T07:57:26;10.93;;;6.57;;
15931;SDS011;8065;49.520;11.284;2023-03-08T07:59:52;7.63;;;5.40;;
15931;SDS011;8065;49.520;11.284;2023-03-08T08:02:19;8.67;;;5.83;;
15931;SDS011;8065;49.520;11.284;2023-03-08T08:04:45;11.10;;;6.33;;
15931;SDS011;8065;49.520;11.284;2023-03-08T08:07:14;8.37;;;6.40;;
15931;SDS011;8065;49.520;11.284;2023-03-08T08:09:41;8.27;;;5.90;;
15931;SDS011;8065;49.520;11.284;2023-03-08T08:12:09;10.17;;;6.60;;
15931;SDS011;8065;49.520;11.284;2023-03-08T08:14:35;10.00;;;6.23;;
15931;SDS011;8065;49.520;11.284;2023-03-08T08:17:02;9.77;;;6.57;;
15931;SDS011;8065;49.520;11.284;2023-03-08T08:19:29;10.10;;;6.80;;
15931;SDS011;8065;49.520;11.284;2023-03-08T08:21:56;9.93;;;7.30;;
15931;SDS011;8065;49.520;11.284;2023-03-08T08:24:24;12.17;;;6.80;;
15931;SDS011;8065;49.520;11.284;2023-03-08T08:26:50;13.07;;;7.27;;
15931;SDS011;8065;49.520;11.284;2023-03-08T08:29:17;12.83;;;7.43;;
15931;SDS011;8065;49.520;11.284;2023-03-08T08:31:43;12.67;;;7.67;;
15931;SDS011;8065;49.520;11.284;2023-03-08T08:34:10;12.80;;;8.27;;
15931;SDS011;8065;49.520;11.284;2023-03-08T08:36:36;14.03;;;10.20;;
15931;SDS011;8065;49.520;11.284;2023-03-08T08:39:03;14.70;;;9.60;;
15931;SDS011;8065;49.520;11.284;2023-03-08T08:41:31;13.43;;;8.07;;
15931;SDS011;8065;49.520;11.284;2023-03-08T08:43:57;19.50;;;9.47;;
15931;SDS011;8065;49.520;11.284;2023-03-08T08:46:25;13.20;;;7.90;;
15931;SDS011;8065;49.520;11.284;2023-03-08T08:48:52;13.50;;;8.87;;
15931;SDS011;8065;49.520;11.284;2023-03-08T08:51:19;11.40;;;8.17;;
15931;SDS011;8065;49.520;11.284;2023-03-08T08:53:46;19.77;;;9.80;;
15931;SDS011;8065;49.520;11.284;2023-03-08T08:56:13;14.80;;;10.30;;
15931;SDS011;8065;49.520;11.284;2023-03-08T08:58:42;16.83;;;9.47;;
15931;SDS011;8065;49.520;11.284;2023-03-08T09:01:13;15.73;;;10.73;;
15931;SDS011;8065;49.520;11.284;2023-03-08T09:03:42;17.33;;;11.20;;
15931;SDS011;8065;49.520;11.284;2023-03-08T09:06:08;13.80;;;10.23;;
15931;SDS011;8065;49.520;11.284;2023-03-08T09:08:35;16.07;;;10.17;;
15931;SDS011;8065;49.520;11.284;2023-03-08T09:11:02;18.87;;;10.50;;
15931;SDS011;8065;49.520;11.284;2023-03-08T09:13:33;18.90;;;11.37;;
15931;SDS011;8065;49.520;11.284;2023-03-08T09:16:03;17.47;;;10.10;;
15931;SDS011;8065;49.520;11.284;2023-03-08T09:18:30;16.47;;;10.20;;
15931;SDS011;8065;49.520;11.284;2023-03-08T09:20:56;19.43;;;12.47;;
15931;SDS011;8065;49.520;11.284;2023-03-08T09:23:26;22.47;;;12.77;;
15931;SDS011;8065;49.520;11.284;2023-03-08T09:25:53;19.77;;;11.60;;
15931;SDS011;8065;49.520;11.284;2023-03-08T09:28:21;17.10;;;11.53;;
15931;SDS011;8065;49.520;11.284;2023-03-08T09:30:47;14.90;;;10.70;;
15931;SDS011;8065;49.520;11.284;2023-03-08T09:33:16;22.07;;;13.33;;
15931;SDS011;8065;49.520;11.284;2023-03-08T09:35:42;25.27;;;13.67;;
15931;SDS011;8065;49.520;11.284;2023-03-08T09:38:09;18.20;;;11.53;;
15931;SDS011;8065;49.520;11.284;2023-03-08T09:40:37;23.97;;;13.13;;
15931;SDS011;8065;49.520;11.284;2023-03-08T09:43:11;21.63;;;12.73;;
15931;SDS011;8065;49.520;11.284;2023-03-08T09:45:50;18.87;;;11.07;;
15931;SDS011;8065;49.520;11.284;2023-03-08T09:48:20;15.40;;;10.70;;
15931;SDS011;8065;49.520;11.284;2023-03-08T09:50:52;19.57;;;12.97;;
15931;SDS011;8065;49.520;11.284;2023-03-08T09:53:23;18.93;;;12.27;;
15931;SDS011;8065;49.520;11.284;2023-03-08T09:55:54;17.17;;;11.77;;
15931;SDS011;8065;49.520;11.284;2023-03-08T09:58:34;20.27;;;12.23;;
15931;SDS011;8065;49.520;11.284;2023-03-08T10:01:11;16.10;;;11.03;;
15931;SDS011;8065;49.520;11.284;2023-03-08T10:06:42;20.20;;;12.60;;
15931;SDS011;8065;49.520;11.284;2023-03-08T10:09:17;17.27;;;12.23;;
15931;SDS011;8065;49.520;11.284;2023-03-08T10:11:52;17.83;;;12.43;;
15931;SDS011;8065;49.520;11.284;2023-03-08T10:14:24;19.73;;;12.20;;
15931;SDS011;8065;49.520;11.284;2023-03-08T10:16:56;19.47;;;12.23;;
15931;SDS011;8065;49.520;11.284;2023-03-08T10:19:27;23.60;;;13.50;;
15931;SDS011;8065;49.520;11.284;2023-03-08T10:21:58;23.73;;;13.43;;
15931;SDS011;8065;49.520;11.284;2023-03-08T10:24:33;22.37;;;13.83;;
15931;SDS011;8065;49.520;11.284;2023-03-08T10:27:11;25.33;;;14.77;;
15931;SDS011;8065;49.520;11.284;2023-03-08T10:29:47;22.17;;;14.40;;
15931;SDS011;8065;49.520;11.284;2023-03-08T10:32:15;22.63;;;13.80;;
15931;SDS011;8065;49.520;11.284;2023-03-08T10:34:43;21.50;;;13.90;;
15931;SDS011;8065;49.520;11.284;2023-03-08T10:37:09;21.70;;;14.20;;
15931;SDS011;8065;49.520;11.284;2023-03-08T10:39:36;19.83;;;13.50;;
15931;SDS011;8065;49.520;11.284;2023-03-08T10:42:16;24.70;;;15.20;;
15931;SDS011;8065;49.520;11.284;2023-03-08T10:44:46;21.17;;;14.57;;
15931;SDS011;8065;49.520;11.284;2023-03-08T10:47:20;23.73;;;15.20;;
15931;SDS011;8065;49.520;11.284;2023-03-08T10:50:01;20.97;;;14.00;;
15931;SDS011;8065;49.520;11.284;2023-03-08T10:52:35;22.37;;;15.00;;
15931;SDS011;8065;49.520;11.284;2023-03-08T10:55:03;23.30;;;14.97;;
15931;SDS011;8065;49.520;11.284;2023-03-08T10:57:31;20.07;;;14.40;;
15931;SDS011;8065;49.520;11.284;2023-03-08T11:00:00;20.13;;;14.37;;
15931;SDS011;8065;49.520;11.284;2023-03-08T11:02:35;21.20;;;14.93;;
15931;SDS011;8065;49.520;11.284;2023-03-08T11:05:15;21.67;;;14.80;;
15931;SDS011;8065;49.520;11.284;2023-03-08T11:07:48;22.90;;;14.93;;
15931;SDS011;8065;49.520;11.284;2023-03-08T11:10:17;21.50;;;14.87;;
15931;SDS011;8065;49.520;11.284;2023-03-08T11:12:48;17.77;;;13.63;;
15931;SDS011;8065;49.520;11.284;2023-03-08T11:15:25;19.03;;;14.37;;
15931;SDS011;8065;49.520;11.284;2023-03-08T11:17:56;20.03;;;14.13;;
15931;SDS011;8065;49.520;11.284;2023-03-08T11:20:30;21.13;;;14.17;;
15931;SDS011;8065;49.520;11.284;2023-03-08T11:23:12;21.60;;;15.77;;
15931;SDS011;8065;49.520;11.284;2023-03-08T11:25:45;19.80;;;14.53;;
15931;SDS011;8065;49.520;11.284;2023-03-08T11:28:20;23.03;;;16.40;;
15931;SDS011;8065;49.520;11.284;2023-03-08T11:30:56;22.93;;;15.60;;
15931;SDS011;8065;49.520;11.284;2023-03-08T11:33:46;23.70;;;16.17;;
15931;SDS011;8065;49.520;11.284;2023-03-08T11:36:26;24.20;;;15.80;;
15931;SDS011;8065;49.520;11.284;2023-03-08T11:38:56;23.07;;;16.07;;
15931;SDS011;8065;49.520;11.284;2023-03-08T11:41:26;22.37;;;15.47;;
15931;SDS011;8065;49.520;11.284;2023-03-08T11:46:59;28.30;;;17.03;;
15931;SDS011;8065;49.520;11.284;2023-03-08T11:49:40;28.30;;;21.60;;
15931;SDS011;8065;49.520;11.284;2023-03-08T11:52:20;25.03;;;16.77;;
15931;SDS011;8065;49.520;11.284;2023-03-08T11:54:57;27.93;;;21.03;;
15931;SDS011;8065;49.520;11.284;2023-03-08T11:57:33;23.73;;;16.53;;
15931;SDS011;8065;49.520;11.284;2023-03-08T12:00:03;25.80;;;16.90;;
15931;SDS011;8065;49.520;11.284;2023-03-08T12:02:39;26.77;;;17.50;;
15931;SDS011;8065;49.520;11.284;2023-03-08T12:05:11;23.67;;;15.63;;
15931;SDS011;8065;49.520;11.284;2023-03-08T12:07:49;21.77;;;14.30;;
15931;SDS011;8065;49.520;11.284;2023-03-08T12:10:20;22.47;;;15.90;;
15931;SDS011;8065;49.520;11.284;2023-03-08T12:12:50;22.43;;;15.00;;
15931;SDS011;8065;49.520;11.284;2023-03-08T12:15:24;22.13;;;15.00;;
15931;SDS011;8065;49.520;11.284;2023-03-08T12:17:55;21.07;;;14.67;;
15931;SDS011;8065;49.520;11.284;2023-03-08T12:20:27;23.30;;;14.93;;
15931;SDS011;8065;49.520;11.284;2023-03-08T12:23:03;23.00;;;15.47;;
15931;SDS011;8065;49.520;11.284;2023-03-08T12:25:43;23.23;;;14.70;;
15931;SDS011;8065;49.520;11.284;2023-03-08T12:28:16;20.07;;;14.17;;
15931;SDS011;8065;49.520;11.284;2023-03-08T12:30:53;22.37;;;15.47;;
15931;SDS011;8065;49.520;11.284;2023-03-08T12:33:28;21.80;;;16.33;;
15931;SDS011;8065;49.520;11.284;2023-03-08T12:35:57;23.10;;;15.80;;
15931;SDS011;8065;49.520;11.284;2023-03-08T12:38:30;22.03;;;15.40;;
15931;SDS011;8065;49.520;11.284;2023-03-08T12:41:00;23.23;;;17.40;;
15931;SDS011;8065;49.520;11.284;2023-03-08T12:43:28;25.00;;;15.90;;
15931;SDS011;8065;49.520;11.284;2023-03-08T12:46:00;21.70;;;15.73;;
15931;SDS011;8065;49.520;11.284;2023-03-08T12:48:30;22.80;;;16.80;;
15931;SDS011;8065;49.520;11.284;2023-03-08T12:51:01;24.30;;;17.20;;
15931;SDS011;8065;49.520;11.284;2023-03-08T12:53:39;20.57;;;15.33;;
15931;SDS011;8065;49.520;11.284;2023-03-08T12:56:21;25.07;;;17.37;;
15931;SDS011;8065;49.520;11.284;2023-03-08T12:58:51;26.20;;;16.50;;
15931;SDS011;8065;49.520;11.284;2023-03-08T13:01:25;23.73;;;16.37;;
15931;SDS011;8065;49.520;11.284;2023-03-08T13:04:00;23.23;;;16.20;;
15931;SDS011;8065;49.520;11.284;2023-03-08T13:09:25;24.50;;;16.73;;
15931;SDS011;8065;49.520;11.284;2023-03-08T13:11:57;25.23;;;15.77;;
15931;SDS011;8065;49.520;11.284;2023-03-08T13:14:36;24.43;;;16.60;;
15931;SDS011;8065;49.520;11.284;2023-03-08T13:20:00;27.57;;;17.50;;
15931;SDS011;8065;49.520;11.284;2023-03-08T13:22:36;28.03;;;18.00;;
15931;SDS011;8065;49.520;11.284;2023-03-08T13:25:16;23.90;;;17.57;;
15931;SDS011;8065;49.520;11.284;2023-03-08T13:27:57;27.17;;;16.87;;
15931;SDS011;8065;49.520;11.284;2023-03-08T13:30:31;25.77;;;17.87;;
15931;SDS011;8065;49.520;11.284;2023-03-08T13:32:59;27.90;;;18.97;;
15931;SDS011;8065;49.520;11.284;2023-03-08T13:35:31;27.13;;;17.27;;
15931;SDS011;8065;49.520;11.284;2023-03-08T13:37:58;25.10;;;18.00;;
15931;SDS011;8065;49.520;11.284;2023-03-08T13:40:27;27.77;;;18.27;;
15931;SDS011;8065;49.520;11.284;2023-03-08T13:42:55;24.73;;;18.10;;
15931;SDS011;8065;49.520;11.284;2023-03-08T13:45:23;26.13;;;17.90;;
15931;SDS011;8065;49.520;11.284;2023-03-08T13:47:51;28.40;;;18.77;;
15931;SDS011;8065;49.520;11.284;2023-03-08T13:50:20;23.70;;;16.17;;
15931;SDS011;8065;49.520;11.284;2023-03-08T13:52:55;25.00;;;16.80;;
15931;SDS011;8065;49.520;11.284;2023-03-08T13:55:24;26.10;;;16.83;;
15931;SDS011;8065;49.520;11.284;2023-03-08T13:57:55;24.80;;;16.60;;
15931;SDS011;8065;49.520;11.284;2023-03-08T14:00:23;24.47;;;17.13;;
15931;SDS011;8065;49.520;11.284;2023-03-08T14:02:52;24.23;;;16.30;;
15931;SDS011;8065;49.520;11.284;2023-03-08T14:05:20;22.27;;;16.20;;
15931;SDS011;8065;49.520;11.284;2023-03-08T14:07:55;24.10;;;16.00;;
15931;SDS011;8065;49.520;11.284;2023-03-08T14:10:24;25.00;;;17.17;;
15931;SDS011;8065;49.520;11.284;2023-03-08T14:13:03;21.77;;;16.20;;
15931;SDS011;8065;49.520;11.284;2023-03-08T14:15:33;22.30;;;15.63;;
15931;SDS011;8065;49.520;11.284;2023-03-08T14:18:03;23.97;;;15.80;;
15931;SDS011;8065;49.520;11.284;2023-03-08T14:20:32;25.30;;;17.87;;
15931;SDS011;8065;49.520;11.284;2023-03-08T14:22:58;25.00;;;16.97;;
15931;SDS011;8065;49.520;11.284;2023-03-08T14:25:26;24.00;;;16.50;;
15931;SDS011;8065;49.520;11.284;2023-03-08T14:27:55;22.67;;;16.03;;
15931;SDS011;8065;49.520;11.284;2023-03-08T14:30:24;26.43;;;16.33;;
15931;SDS011;8065;49.520;11.284;2023-03-08T14:32:53;25.77;;;16.37;;
15931;SDS011;8065;49.520;11.284;2023-03-08T14:35:23;24.80;;;15.87;;
15931;SDS011;8065;49.520;11.284;2023-03-08T14:37:52;27.67;;;17.50;;
15931;SDS011;8065;49.520;11.284;2023-03-08T14:40:30;26.33;;;18.93;;
15931;SDS011;8065;49.520;11.284;2023-03-08T14:43:00;25.77;;;17.20;;
15931;SDS011;8065;49.520;11.284;2023-03-08T14:45:34;26.37;;;17.33;;
15931;SDS011;8065;49.520;11.284;2023-03-08T14:48:13;22.43;;;16.43;;
15931;SDS011;8065;49.520;11.284;2023-03-08T14:50:51;22.70;;;15.60;;
15931;SDS011;8065;49.520;11.284;2023-03-08T14:53:25;23.93;;;17.40;;
15931;SDS011;8065;49.520;11.284;2023-03-08T14:55:54;23.70;;;16.03;;